createdAt,value
2022-09-24T00:01:27.437Z,298.65
2022-09-24T00:04:00.577Z,298.10
2022-09-24T00:06:29.595Z,282.70
2022-09-24T00:08:57.182Z,287.70
2022-09-24T00:11:26.395Z,280.42
2022-09-24T00:13:53.567Z,277.10
2022-09-24T00:16:21.956Z,275.90
2022-09-24T00:18:48.703Z,277.77
2022-09-24T00:21:21.658Z,273.35
2022-09-24T00:23:53.561Z,271.15
2022-09-24T00:26:39.974Z,260.30
2022-09-24T00:29:08.100Z,240.30
2022-09-24T00:31:34.795Z,248.68
2022-09-24T00:34:01.864Z,253.80
2022-09-24T00:36:28.567Z,254.75
2022-09-24T00:38:59.787Z,244.18
2022-09-24T00:41:29.413Z,233.20
2022-09-24T00:43:56.724Z,222.50
2022-09-24T00:46:32.288Z,227.77
2022-09-24T00:49:02.863Z,223.13
2022-09-24T00:51:31.141Z,223.35
2022-09-24T00:54:04.455Z,219.68
2022-09-24T00:56:33.943Z,220.75
2022-09-24T00:59:02.564Z,221.93
2022-09-24T01:01:32.504Z,221.60
2022-09-24T01:04:01.424Z,218.90
2022-09-24T01:06:28.453Z,229.60
2022-09-24T01:08:56.686Z,249.10
2022-09-24T01:11:23.175Z,241.10
2022-09-24T01:13:55.560Z,240.85
2022-09-24T01:16:41.177Z,236.93
2022-09-24T01:19:29.446Z,238.23
2022-09-24T01:22:07.285Z,229.40
2022-09-24T01:25:26.455Z,271.70
2022-09-24T01:28:02.574Z,253.65
2022-09-24T01:30:34.258Z,261.60
2022-09-24T01:33:03.646Z,256.60
2022-09-24T01:35:44.248Z,266.77
2022-09-24T01:38:45.760Z,275.30
2022-09-24T01:41:16.017Z,288.50
2022-09-24T01:43:46.484Z,294.90
2022-09-24T01:46:14.409Z,299.15
2022-09-24T01:48:41.481Z,292.50
2022-09-24T01:51:16.493Z,291.48
2022-09-24T01:53:54.627Z,292.83
2022-09-24T01:56:27.178Z,293.23
2022-09-24T01:59:04.822Z,280.10
2022-09-24T02:01:42.530Z,288.42
2022-09-24T02:04:16.748Z,297.25
2022-09-24T02:06:54.767Z,369.13
2022-09-24T02:09:42.789Z,317.52
2022-09-24T02:12:11.451Z,303.65
2022-09-24T02:14:48.112Z,323.13
2022-09-24T02:17:15.194Z,317.90
2022-09-24T02:19:42.503Z,329.65
2022-09-24T02:22:11.764Z,332.52
2022-09-24T02:24:51.305Z,332.58
2022-09-24T02:27:18.567Z,329.35
2022-09-24T02:29:46.292Z,323.63
2022-09-24T02:32:18.188Z,320.92
2022-09-24T02:34:50.200Z,317.27
2022-09-24T02:37:17.297Z,320.33
2022-09-24T02:39:44.131Z,326.65
2022-09-24T02:42:13.705Z,330.63
2022-09-24T02:44:40.474Z,322.17
2022-09-24T02:47:07.605Z,324.08
2022-09-24T02:49:34.352Z,323.20
2022-09-24T02:52:01.055Z,308.40
2022-09-24T02:54:27.591Z,318.17
2022-09-24T02:56:54.174Z,314.80
2022-09-24T02:59:20.687Z,310.67
2022-09-24T03:01:47.498Z,317.92
2022-09-24T03:04:15.663Z,321.33
2022-09-24T03:06:42.872Z,322.38
2022-09-24T03:09:12.798Z,328.90
2022-09-24T03:11:39.314Z,329.38
2022-09-24T03:14:05.962Z,328.90
2022-09-24T03:16:33.678Z,322.02
2022-09-24T03:19:00.311Z,319.83
2022-09-24T03:21:26.865Z,322.30
2022-09-24T03:23:53.595Z,318.40
2022-09-24T03:26:20.158Z,320.30
2022-09-24T03:28:46.645Z,321.52
2022-09-24T03:31:13.997Z,323.52
2022-09-24T03:33:43.379Z,307.05
2022-09-24T03:36:24.495Z,307.88
2022-09-24T03:38:56.952Z,283.90
2022-09-24T03:41:28.369Z,298.10
2022-09-24T03:43:56.056Z,303.17
2022-09-24T03:46:30.157Z,305.27
2022-09-24T03:48:59.268Z,296.13
2022-09-24T03:51:26.009Z,286.80
2022-09-24T03:53:52.585Z,294.63
2022-09-24T03:56:19.103Z,286.98
2022-09-24T03:58:48.214Z,290.35
2022-09-24T04:01:21.257Z,285.10
2022-09-24T04:03:48.964Z,287.52
2022-09-24T04:06:16.021Z,284.90
2022-09-24T04:08:42.631Z,284.02
2022-09-24T04:11:09.164Z,296.25
2022-09-24T04:13:35.810Z,288.60
2022-09-24T04:16:04.040Z,290.42
2022-09-24T04:18:33.621Z,279.38
2022-09-24T04:21:02.228Z,282.92
2022-09-24T04:23:31.491Z,288.45
2022-09-24T04:26:02.324Z,273.77
2022-09-24T04:28:30.149Z,278.52
2022-09-24T04:30:57.093Z,272.27
2022-09-24T04:33:23.614Z,273.55
2022-09-24T04:35:50.112Z,278.10
2022-09-24T04:38:16.626Z,281.58
2022-09-24T04:40:43.897Z,260.27
2022-09-24T04:43:10.432Z,277.17
2022-09-24T04:45:37.448Z,262.10
2022-09-24T04:48:04.048Z,255.82
2022-09-24T04:50:34.609Z,258.40
2022-09-24T04:53:02.356Z,251.02
2022-09-24T04:55:28.869Z,249.15
2022-09-24T04:57:56.818Z,251.05
2022-09-24T05:00:24.368Z,242.73
2022-09-24T05:03:03.863Z,245.80
2022-09-24T05:05:32.306Z,231.82
2022-09-24T05:07:59.414Z,231.63
2022-09-24T05:10:26.152Z,226.82
2022-09-24T05:12:53.203Z,248.68
2022-09-24T05:15:20.028Z,234.55
2022-09-24T05:17:46.906Z,245.60
2022-09-24T05:20:15.179Z,245.27
2022-09-24T05:22:46.545Z,247.85
2022-09-24T05:25:14.316Z,249.45
2022-09-24T05:27:48.853Z,405.73
2022-09-24T05:30:15.912Z,242.45
2022-09-24T05:32:42.814Z,247.90
2022-09-24T05:35:09.742Z,247.52
2022-09-24T05:37:37.410Z,253.43
2022-09-24T05:40:24.528Z,257.88
2022-09-24T05:42:52.010Z,256.45
2022-09-24T05:45:18.835Z,255.80
2022-09-24T05:47:46.294Z,279.85
2022-09-24T05:50:14.117Z,263.20
2022-09-24T05:52:41.434Z,272.67
2022-09-24T05:55:09.420Z,284.88
2022-09-24T05:57:36.083Z,283.77
2022-09-24T06:00:03.885Z,306.58
2022-09-24T06:02:30.406Z,461.52
2022-09-24T06:04:56.910Z,293.70
2022-09-24T06:07:23.618Z,319.50
2022-09-24T06:09:50.768Z,324.95
2022-09-24T06:12:18.082Z,325.48
2022-09-24T06:14:44.599Z,336.23
2022-09-24T06:17:11.397Z,353.05
2022-09-24T06:19:39.287Z,365.55
2022-09-24T06:22:05.798Z,372.40
2022-09-24T06:24:32.332Z,388.65
2022-09-24T06:26:58.818Z,406.73
2022-09-24T06:29:25.435Z,414.08
2022-09-24T06:31:53.889Z,421.70
2022-09-24T06:34:20.435Z,447.42
2022-09-24T06:36:47.006Z,465.40
2022-09-24T06:39:13.493Z,468.60
2022-09-24T06:41:39.978Z,497.00
2022-09-24T06:44:06.488Z,515.65
2022-09-24T06:46:33.017Z,522.40
2022-09-24T06:48:59.527Z,532.20
2022-09-24T06:51:26.056Z,542.67
2022-09-24T06:53:52.806Z,545.55
2022-09-24T06:56:19.923Z,534.50
2022-09-24T06:58:46.587Z,487.25
2022-09-24T07:01:13.322Z,464.02
2022-09-24T07:03:40.267Z,438.30
2022-09-24T07:06:07.319Z,425.17
2022-09-24T07:08:34.162Z,403.05
2022-09-24T07:11:01.596Z,390.58
2022-09-24T07:13:28.163Z,382.73
2022-09-24T07:15:54.735Z,370.67
2022-09-24T07:18:21.566Z,367.65
2022-09-24T07:20:55.718Z,365.42
2022-09-24T07:23:23.261Z,362.13
2022-09-24T07:25:51.171Z,348.42
2022-09-24T07:28:18.847Z,397.88
2022-09-24T07:30:45.353Z,404.98
2022-09-24T07:33:11.844Z,387.92
2022-09-24T07:35:39.413Z,378.50
2022-09-24T07:38:15.589Z,361.80
2022-09-24T07:40:42.418Z,372.45
2022-09-24T07:43:13.978Z,374.52
2022-09-24T07:45:41.915Z,363.60
2022-09-24T07:48:10.372Z,340.70
2022-09-24T07:50:41.505Z,323.50
2022-09-24T07:53:11.773Z,301.25
2022-09-24T07:55:41.111Z,289.45
2022-09-24T07:58:14.981Z,83.90
2022-09-24T08:00:42.709Z,58.28
2022-09-24T08:03:09.268Z,61.22
2022-09-24T08:05:36.038Z,37.17
2022-09-24T08:08:02.692Z,31.58
2022-09-24T08:10:29.409Z,27.85
2022-09-24T08:12:58.915Z,28.05
2022-09-24T08:15:25.989Z,27.42
2022-09-24T08:17:53.061Z,28.23
2022-09-24T08:20:19.628Z,27.42
2022-09-24T08:22:46.106Z,25.63
2022-09-24T08:25:12.706Z,25.33
2022-09-24T08:27:39.333Z,27.40
2022-09-24T08:30:06.702Z,27.20
2022-09-24T08:32:33.279Z,26.80
2022-09-24T08:34:59.838Z,27.25
2022-09-24T08:37:28.278Z,29.63
2022-09-24T08:39:55.406Z,32.72
2022-09-24T08:42:40.750Z,35.58
2022-09-24T08:45:27.751Z,37.97
2022-09-24T08:48:10.100Z,51.90
2022-09-24T08:50:39.607Z,50.90
2022-09-24T08:53:11.911Z,54.22
2022-09-24T08:55:45.181Z,45.03
2022-09-24T08:58:17.440Z,28.63
2022-09-24T09:00:54.394Z,35.97
2022-09-24T09:03:39.018Z,26.23
2022-09-24T09:06:30.182Z,23.55
2022-09-24T09:09:08.111Z,26.10
2022-09-24T09:11:37.981Z,33.00
2022-09-24T09:14:12.468Z,29.95
2022-09-24T09:17:49.896Z,35.53
2022-09-24T09:20:21.522Z,34.08
2022-09-24T09:22:50.218Z,39.08
2022-09-24T09:25:29.879Z,40.42
2022-09-24T09:28:15.310Z,42.40
2022-09-24T09:30:51.102Z,43.65
2022-09-24T09:33:25.099Z,62.20
2022-09-24T09:35:59.999Z,56.95
2022-09-24T09:38:55.611Z,62.22
2022-09-24T09:41:41.643Z,67.68
2022-09-24T09:44:16.200Z,69.63
2022-09-24T09:46:50.461Z,76.88
2022-09-24T09:51:50.651Z,86.13
2022-09-24T09:54:17.141Z,74.10
2022-09-24T09:56:49.747Z,56.47
2022-09-24T09:59:27.218Z,50.70
2022-09-24T10:01:56.526Z,37.90
2022-09-24T10:04:35.566Z,40.35
2022-09-24T10:07:16.954Z,37.97
2022-09-24T10:09:45.413Z,33.22
2022-09-24T10:12:22.038Z,25.95
2022-09-24T10:15:03.128Z,28.20
2022-09-24T10:17:38.478Z,26.48
2022-09-24T10:20:27.626Z,29.15
2022-09-24T10:22:58.659Z,29.70
2022-09-24T10:25:30.653Z,31.88
2022-09-24T10:28:21.064Z,28.60
2022-09-24T10:31:14.934Z,32.35
2022-09-24T10:33:45.524Z,31.75
2022-09-24T10:36:28.712Z,32.10
2022-09-24T10:39:07.339Z,30.02
2022-09-24T10:41:33.883Z,27.63
2022-09-24T10:44:05.455Z,27.98
2022-09-24T10:46:43.963Z,26.98
2022-09-24T10:49:22.662Z,29.05
2022-09-24T10:52:09.697Z,28.92
2022-09-24T10:55:12.142Z,29.08
2022-09-24T10:57:57.633Z,30.70
2022-09-24T11:00:38.207Z,28.88
2022-09-24T11:03:17.571Z,30.73
2022-09-24T11:06:14.660Z,30.70
2022-09-24T11:08:49.979Z,29.17
2022-09-24T11:11:36.968Z,29.92
2022-09-24T11:14:40.796Z,29.73
2022-09-24T11:17:33.556Z,33.47
2022-09-24T11:20:12.039Z,35.38
2022-09-24T11:22:44.336Z,40.85
2022-09-24T11:25:52.584Z,40.40
2022-09-24T11:28:41.844Z,43.85
2022-09-24T11:31:14.602Z,44.90
2022-09-24T11:34:22.704Z,43.83
2022-09-24T11:37:20.018Z,45.10
2022-09-24T11:40:04.851Z,45.50
2022-09-24T11:42:43.106Z,37.72
2022-09-24T11:45:47.832Z,30.67
2022-09-24T11:48:31.397Z,29.30
2022-09-24T11:51:20.875Z,19.93
2022-09-24T11:54:07.332Z,14.90
2022-09-24T11:56:46.223Z,14.88
2022-09-24T11:59:34.479Z,13.32
2022-09-24T12:02:13.076Z,12.93
2022-09-24T12:04:53.215Z,13.45
2022-09-24T12:07:31.972Z,15.43
2022-09-24T12:10:24.965Z,15.32
2022-09-24T12:12:57.590Z,14.05
2022-09-24T12:15:30.787Z,14.85
2022-09-24T12:18:11.502Z,14.32
2022-09-24T12:21:07.136Z,14.80
2022-09-24T12:23:39.592Z,14.43
2022-09-24T12:26:07.652Z,14.90
2022-09-24T12:29:01.764Z,15.85
2022-09-24T12:32:01.059Z,15.35
2022-09-24T12:34:45.727Z,15.73
2022-09-24T12:37:18.459Z,16.63
2022-09-24T12:39:58.071Z,17.95
2022-09-24T12:42:34.719Z,17.80
2022-09-24T12:45:03.084Z,16.95
2022-09-24T12:47:34.539Z,18.88
2022-09-24T12:50:04.929Z,20.10
2022-09-24T12:52:42.774Z,23.30
2022-09-24T12:55:20.290Z,23.50
2022-09-24T12:57:54.517Z,29.67
2022-09-24T13:03:27.265Z,41.80
2022-09-24T13:05:55.521Z,44.25
2022-09-24T13:08:26.743Z,51.70
2022-09-24T13:11:05.719Z,49.05
2022-09-24T13:13:40.941Z,52.55
2022-09-24T13:16:20.603Z,52.50
2022-09-24T13:18:56.270Z,56.90
2022-09-24T13:21:28.299Z,78.15
2022-09-24T13:23:55.671Z,54.92
2022-09-24T13:26:24.859Z,57.50
2022-09-24T13:28:58.589Z,57.15
2022-09-24T13:31:52.652Z,130.27
2022-09-24T13:34:27.263Z,53.43
2022-09-24T13:37:23.603Z,56.63
2022-09-24T13:40:01.573Z,57.45
2022-09-24T13:42:35.903Z,56.00
2022-09-24T13:45:09.590Z,57.05
2022-09-24T13:47:55.956Z,54.72
2022-09-24T13:50:38.931Z,54.55
2022-09-24T13:53:24.063Z,51.80
2022-09-24T13:55:54.818Z,51.25
2022-09-24T13:58:27.794Z,54.20
2022-09-24T14:00:55.133Z,54.17
2022-09-24T14:03:33.423Z,54.17
2022-09-24T14:06:01.387Z,51.97
2022-09-24T14:08:29.979Z,53.90
2022-09-24T14:11:13.323Z,52.65
2022-09-24T14:13:45.653Z,51.88
2022-09-24T14:16:20.661Z,51.78
2022-09-24T14:18:48.384Z,52.05
2022-09-24T14:21:33.253Z,54.33
2022-09-24T14:24:05.963Z,47.30
2022-09-24T14:26:51.070Z,46.35
2022-09-24T14:29:22.726Z,42.78
2022-09-24T14:31:53.248Z,46.60
2022-09-24T14:34:43.085Z,43.40
2022-09-24T14:37:22.730Z,41.42
2022-09-24T14:39:57.251Z,44.95
2022-09-24T14:42:26.693Z,44.47
2022-09-24T14:44:54.731Z,41.95
2022-09-24T14:47:28.629Z,41.85
2022-09-24T14:49:56.159Z,42.30
2022-09-24T14:52:56.676Z,40.42
2022-09-24T14:55:38.971Z,39.90
2022-09-24T14:58:05.948Z,39.35
2022-09-24T15:00:46.371Z,38.75
2022-09-24T15:03:16.175Z,39.35
2022-09-24T15:05:44.992Z,40.85
2022-09-24T15:08:23.894Z,37.78
2022-09-24T15:10:57.996Z,37.22
2022-09-24T15:13:27.183Z,37.15
2022-09-24T15:16:42.312Z,38.30
2022-09-24T15:19:30.743Z,37.92
2022-09-24T15:21:58.728Z,36.95
2022-09-24T15:24:25.398Z,36.38
2022-09-24T15:27:06.874Z,34.67
2022-09-24T15:29:33.471Z,34.50
2022-09-24T15:32:00.268Z,36.17
2022-09-24T15:34:28.373Z,37.33
2022-09-24T15:36:59.091Z,36.97
2022-09-24T15:39:27.480Z,38.28
2022-09-24T15:41:54.231Z,34.65
2022-09-24T15:44:23.812Z,34.15
2022-09-24T15:46:51.337Z,33.83
2022-09-24T15:49:22.268Z,32.03
2022-09-24T15:52:25.972Z,34.42
2022-09-24T15:54:55.391Z,31.48
2022-09-24T15:57:22.711Z,32.10
2022-09-24T15:59:49.910Z,31.00
2022-09-24T16:02:19.518Z,33.17
2022-09-24T16:04:46.483Z,31.10
2022-09-24T16:07:13.313Z,32.53
2022-09-24T16:09:40.852Z,31.50
2022-09-24T16:12:07.344Z,32.20
2022-09-24T16:14:33.890Z,31.00
2022-09-24T16:17:00.430Z,31.95
2022-09-24T16:19:27.313Z,31.45
2022-09-24T16:21:53.862Z,34.03
2022-09-24T16:24:20.467Z,34.75
2022-09-24T16:26:47.007Z,32.22
2022-09-24T16:29:13.472Z,30.23
2022-09-24T16:31:40.024Z,31.83
2022-09-24T16:34:06.595Z,32.55
2022-09-24T16:36:33.102Z,34.13
2022-09-24T16:39:00.192Z,32.25
2022-09-24T16:41:26.682Z,31.35
2022-09-24T16:43:56.929Z,30.45
2022-09-24T16:46:23.648Z,31.30
2022-09-24T16:48:50.314Z,29.98
2022-09-24T16:51:17.405Z,31.90
2022-09-24T16:53:48.507Z,30.95
2022-09-24T16:56:17.380Z,31.30
2022-09-24T16:58:45.719Z,31.63
2022-09-24T17:01:15.708Z,30.00
2022-09-24T17:03:42.838Z,30.63
2022-09-24T17:06:17.564Z,32.13
2022-09-24T17:09:02.530Z,31.15
2022-09-24T17:11:29.051Z,30.98
2022-09-24T17:13:56.349Z,31.15
2022-09-24T17:16:25.039Z,31.25
2022-09-24T17:18:54.373Z,31.38
2022-09-24T17:21:22.207Z,30.38
2022-09-24T17:23:49.407Z,31.15
2022-09-24T17:26:18.418Z,32.85
2022-09-24T17:28:47.248Z,33.25
2022-09-24T17:31:16.769Z,34.63
2022-09-24T17:33:44.494Z,32.58
2022-09-24T17:36:12.817Z,33.35
2022-09-24T17:38:39.547Z,34.10
2022-09-24T17:41:08.499Z,34.30
2022-09-24T17:43:35.528Z,36.67
2022-09-24T17:46:13.891Z,37.92
2022-09-24T17:48:44.574Z,39.92
2022-09-24T17:51:15.596Z,39.08
2022-09-24T17:53:42.684Z,37.80
2022-09-24T17:56:12.378Z,37.47
2022-09-24T17:58:44.595Z,39.85
2022-09-24T18:01:13.962Z,33.40
2022-09-24T18:03:41.185Z,30.42
2022-09-24T18:06:10.068Z,27.58
2022-09-24T18:08:41.912Z,26.02
2022-09-24T18:11:18.203Z,26.38
2022-09-24T18:13:49.367Z,26.88
2022-09-24T18:16:17.670Z,27.17
2022-09-24T18:18:45.112Z,32.35
2022-09-24T18:21:13.678Z,37.97
2022-09-24T18:23:40.474Z,51.58
2022-09-24T18:26:08.903Z,59.42
2022-09-24T18:28:35.455Z,73.88
2022-09-24T18:31:03.564Z,74.85
2022-09-24T18:33:30.160Z,68.07
2022-09-24T18:35:56.668Z,69.07
2022-09-24T18:38:23.139Z,77.53
2022-09-24T18:40:49.758Z,97.68
2022-09-24T18:43:16.272Z,118.45
2022-09-24T18:45:42.816Z,128.80
2022-09-24T18:48:09.340Z,129.73
2022-09-24T18:50:43.099Z,129.20
2022-09-24T18:53:09.768Z,144.50
2022-09-24T18:55:40.928Z,156.77
2022-09-24T18:58:08.519Z,165.40
2022-09-24T19:00:49.833Z,153.93
2022-09-24T19:03:23.595Z,177.43
2022-09-24T19:05:51.850Z,168.43
2022-09-24T19:08:20.281Z,169.75
2022-09-24T19:10:47.955Z,170.45
2022-09-24T19:13:16.167Z,169.25
2022-09-24T19:15:43.318Z,159.50
2022-09-24T19:18:14.073Z,167.93
2022-09-24T19:20:42.966Z,161.13
2022-09-24T19:23:10.099Z,165.00
2022-09-24T19:25:38.331Z,157.98
2022-09-24T19:28:07.379Z,145.90
2022-09-24T19:30:45.776Z,148.85
2022-09-24T19:33:15.751Z,126.57
2022-09-24T19:35:52.000Z,117.55
2022-09-24T19:38:18.496Z,110.10
2022-09-24T19:40:55.032Z,99.95
2022-09-24T19:43:22.426Z,89.13
2022-09-24T19:45:58.162Z,82.53
2022-09-24T19:48:26.737Z,71.45
2022-09-24T19:50:54.361Z,64.97
2022-09-24T19:53:21.371Z,54.67
2022-09-24T19:55:47.879Z,43.92
2022-09-24T19:58:15.637Z,37.10
2022-09-24T20:00:43.127Z,32.95
2022-09-24T20:03:11.177Z,32.20
2022-09-24T20:05:38.300Z,33.00
2022-09-24T20:08:04.852Z,30.77
2022-09-24T20:10:31.431Z,32.13
2022-09-24T20:12:58.259Z,31.70
2022-09-24T20:15:24.832Z,31.98
2022-09-24T20:17:51.336Z,31.98
2022-09-24T20:20:18.207Z,33.10
2022-09-24T20:22:44.677Z,34.05
2022-09-24T20:25:12.904Z,36.13
2022-09-24T20:27:51.674Z,37.97
2022-09-24T20:30:23.845Z,34.63
2022-09-24T20:32:50.999Z,35.70
2022-09-24T20:35:17.698Z,36.47
2022-09-24T20:37:44.752Z,36.60
2022-09-24T20:40:11.671Z,40.08
2022-09-24T20:42:38.972Z,38.42
2022-09-24T20:45:07.356Z,38.83
2022-09-24T20:47:33.857Z,40.55
2022-09-24T20:50:00.376Z,39.40
2022-09-24T20:52:27.022Z,38.50
2022-09-24T20:54:53.503Z,37.47
2022-09-24T20:57:20.002Z,39.17
2022-09-24T20:59:48.797Z,38.22
2022-09-24T21:02:15.637Z,37.70
2022-09-24T21:04:42.196Z,36.88
2022-09-24T21:07:08.865Z,36.20
2022-09-24T21:09:35.420Z,35.33
2022-09-24T21:12:03.422Z,33.72
2022-09-24T21:14:29.909Z,30.75
2022-09-24T21:16:56.513Z,30.63
2022-09-24T21:19:22.991Z,31.30
2022-09-24T21:21:50.552Z,30.52
2022-09-24T21:24:17.095Z,31.42
2022-09-24T21:26:45.153Z,32.67
2022-09-24T21:29:17.904Z,35.58
2022-09-24T21:31:46.916Z,44.25
2022-09-24T21:34:16.049Z,50.47
2022-09-24T21:36:45.621Z,48.25
2022-09-24T21:39:17.795Z,53.55
2022-09-24T21:41:49.786Z,77.35
2022-09-24T21:44:19.867Z,83.28
2022-09-24T21:46:47.769Z,82.70
2022-09-24T21:49:14.325Z,105.18
2022-09-24T21:51:41.936Z,104.93
2022-09-24T21:54:13.177Z,98.78
2022-09-24T21:56:40.027Z,104.93
2022-09-24T21:59:26.523Z,115.70
2022-09-24T22:01:53.504Z,129.07
2022-09-24T22:04:20.329Z,142.48
2022-09-24T22:06:48.360Z,143.63
2022-09-24T22:09:15.629Z,147.43
2022-09-24T22:11:43.013Z,154.90
2022-09-24T22:14:11.661Z,157.38
2022-09-24T22:16:38.595Z,153.00
2022-09-24T22:19:07.376Z,154.75
2022-09-24T22:21:34.054Z,374.75
2022-09-24T22:24:01.069Z,156.48
2022-09-24T22:26:29.594Z,155.40
2022-09-24T22:28:56.729Z,155.43
2022-09-24T22:31:23.506Z,148.55
2022-09-24T22:34:08.612Z,143.00
2022-09-24T22:36:36.087Z,137.90
2022-09-24T22:39:04.403Z,140.23
2022-09-24T22:41:32.624Z,136.82
2022-09-24T22:43:59.406Z,136.20
2022-09-24T22:46:27.266Z,134.65
2022-09-24T22:48:54.998Z,129.23
2022-09-24T22:51:22.145Z,134.07
2022-09-24T22:53:48.667Z,131.63
2022-09-24T22:56:18.342Z,129.82
2022-09-24T22:58:49.924Z,123.43
2022-09-24T23:01:22.911Z,114.43
2022-09-24T23:03:55.347Z,103.28
2022-09-24T23:06:22.187Z,102.05
2022-09-24T23:08:49.426Z,104.63
2022-09-24T23:11:25.270Z,102.70
2022-09-24T23:13:55.943Z,100.20
2022-09-24T23:16:25.250Z,100.93
2022-09-24T23:18:54.781Z,95.85
2022-09-24T23:21:23.410Z,84.80
2022-09-24T23:24:01.293Z,71.53
2022-09-24T23:26:28.747Z,64.50
2022-09-24T23:28:56.797Z,80.05
2022-09-24T23:31:27.454Z,64.25
2022-09-24T23:33:56.355Z,54.78
2022-09-24T23:36:24.587Z,53.78
2022-09-24T23:38:51.234Z,49.08
2022-09-24T23:41:17.739Z,44.08
2022-09-24T23:43:44.277Z,39.20
2022-09-24T23:46:11.381Z,36.65
2022-09-24T23:48:38.338Z,33.45
2022-09-24T23:51:06.392Z,33.17
2022-09-24T23:53:34.242Z,29.02
2022-09-24T23:56:02.126Z,28.05
2022-09-24T23:58:29.291Z,27.35
